Pagrindinis puslapis
METAR-TAF:

METAR-TAF

Oro uostai :

Trasa Zeltweg

Zeltweg, Austrija

platuma: 47-12N, ilguma: 014-45E, Aukštis: 677 m

Dabartinis oras

Ataskaita buvo paskelbta 15 minutes, ne 18:50 UTC
Vėjas 9 kt iš Rytų/Šiaurės Rytų
Temperatūra 5°C
Drėgmė 48%
Slėgis 1015 hPa
Matomumas 10 km arba daugiau
Mažai debesys ne aukštis 6000 ft
Išsisklaidę debesys ne aukštis 7000 ft

METAR: LOXZ 211850Z 07009KT 9999 FEW060 SCT070 05/M05 Q1015

Laikas: 21:05 (19:05 UTC)

Prognozė

Ataskaita buvo paskelbta 7 valandos ir 50 minutes, ne 11:15 UTC
Prognozė galioja nuo 21 metu 12 UTC su 21 metu 21 UTC
Vėjas 3 kt nuo kintamojo kryptimis
Matomumas 10 km arba daugiau
Mažai debesys ne aukštis 6000 ft
Su prošvaistėmis ne aukštis 7000 ft
Laikinai
nuo 21 metu 12 UTC su 21 metu 18 UTC
Vėjas 9 kt iš Šiaurės/Šiaurės Rytų
Mažai debesys ne aukštis 5000 ft, aukštai iškilę kamuoliniai debesys.
Su prošvaistėmis ne aukštis 6000 ft
lietus,

TAF: LOXZ 211115Z 2112/2121 VRB03KT 9999 FEW060 BKN070 TEMPO 2112/2118 03009KT SHRA FEW050TCU BKN060

Orai ataskaitas ir orų prognozės (METAR, TAF).

turimą stotys yra geltonos ir raudonos taškus žemėlapyje.

Perkelti pele per norėdami pamatyti stoties vardą.

Tada spustelėkite, norėdami matyti oro stebėjimo ir prognozės.

Norėdami pakeisti žemėlapį: spustelėkite ant žalios mygtukų su juodo kryžiaus žemyn,; žalią mygtuką su brūkšneliu, jei norite nutolinti; arba žalių rodyklių gretimoms žemėlapius.


METAR-TAF: